หน้าหลัก
METAR-TAF:

METAR-TAF

ท่าอากาศยาน :

Katima Mulilo, นามิเบีย

ละติจูด: 17-38-04S, ลองจิจูด: 024-10-36E, ความสูง: 985 ม.

การสังเกตสภาพอากาศปัจจุบัน

รายงานได้ทำขึ้นเมื่อ 1 ชั่วโมงและ 9 นาทีที่แล้ว ณ เวลา 09:00 UTC
ลม 6 นอตจากตะวันออก
อุณหภูมิ 28°C
ความชื้น 16%
ความกดอากาศ 1023 hPa
ทัศนวิสัย 10 กม. หรือมากกว่า
ไม่มีเมฆต่ำกว่า 1,500 ม. และไม่มีเมฆคิวมูโลนิมบัส

METAR: FYKM 180900Z 10006KT CAVOK 28/00 Q1023

เวลา: 12:09 (10:09 UTC)

การพยากรณ์

รายงานได้ทำขึ้นเมื่อ 2 ชั่วโมงและ 9 นาทีที่แล้ว ณ เวลา 08:00 UTC
การพยากรณ์มีผลตั้งแต่วันที่ 18 ณ เวลา 09 UTC จนถึงวันที่ 18 ณ เวลา 18 UTC
ลม 5 นอตจากตะวันออก
ทัศนวิสัย 10 กม. หรือมากกว่า
ไม่มีเมฆต่ำกว่า 1,500 ม. และไม่มีเมฆคิวมูโลนิมบัส
กำลังกลายเป็น
ตั้งแต่วันที่ 18 ณ เวลา 10 UTC จนถึงวันที่ 18 ณ เวลา 12 UTC
ลม 16 นอตจากตะวันออก

TAF: FYKM 180800Z 1809/1818 10005KT CAVOK BECMG 1810/1812 10016KT

สังเกตการณ์สภาพอากาศและพยากรณ์อากาศของสนามบินมากกว่า 4000 แห่ง (รายงาน METAR และ TAF).

สถานีที่ดูได้จะแสดงไว้ด้วยจุดสีเหลืองและสีแดงบนแผนที่.

เลื่อนเมาส์ไปเหนือจุดเพื่อดูชื่อสถานี.

แล้วคลิกเพื่อดูสังเกตการณ์และการพยากรณ์สภาพอากาศ.

ในการเปลี่ยนแผนที่: คลิกที่ปุ่มสีเขียวที่มีกากบาทสีดำเพื่อซูมเข้า; ที่ปุ่มสีเขียวที่มีขีดเพื่อซูมออก; หรือที่ลูกศรสีเขียวเพื่อไปยังแผนที่ที่อยู่ติดกัน.


METAR-TAF: